createdAt,value
2023-01-29T00:01:59.558Z,52.62
2023-01-29T00:08:25.291Z,52.60
2023-01-29T00:10:20.858Z,52.58
2023-01-29T00:11:27.730Z,52.48
2023-01-29T00:14:30.448Z,52.48
2023-01-29T00:17:32.902Z,52.36
2023-01-29T00:20:35.709Z,52.38
2023-01-29T00:23:38.783Z,52.37
2023-01-29T00:26:43.761Z,52.38
2023-01-29T00:30:06.109Z,51.96
2023-01-29T00:33:08.823Z,51.79
2023-01-29T00:36:12.925Z,51.71
2023-01-29T00:39:15.449Z,51.56
2023-01-29T00:42:36.803Z,51.46
2023-01-29T00:45:39.615Z,51.54
2023-01-29T00:48:41.577Z,51.56
2023-01-29T00:52:05.532Z,51.62
2023-01-29T00:55:09.680Z,51.44
2023-01-29T00:58:12.582Z,51.44
2023-01-29T01:01:14.916Z,51.46
2023-01-29T01:04:17.724Z,51.49
2023-01-29T01:07:20.490Z,51.53
2023-01-29T01:10:26.879Z,51.54
2023-01-29T01:13:29.556Z,51.56
2023-01-29T01:16:32.962Z,51.33
2023-01-29T01:19:35.629Z,51.24
2023-01-29T01:22:38.371Z,51.17
2023-01-29T01:25:41.078Z,51.25
2023-01-29T01:28:44.779Z,51.27
2023-01-29T01:31:46.802Z,51.33
2023-01-29T01:34:49.186Z,51.33
2023-01-29T01:37:51.854Z,51.30
2023-01-29T01:40:54.273Z,51.41
2023-01-29T01:44:01.986Z,51.49
2023-01-29T01:47:04.877Z,51.56
2023-01-29T01:50:29.654Z,51.66
2023-01-29T01:53:42.329Z,51.74
2023-01-29T01:56:51.239Z,51.77
2023-01-29T02:00:00.206Z,51.87
2023-01-29T02:03:22.097Z,51.88
2023-01-29T02:06:43.290Z,51.89
2023-01-29T02:10:00.614Z,52.01
2023-01-29T02:13:04.827Z,52.11
2023-01-29T02:16:08.690Z,52.06
2023-01-29T02:19:20.215Z,52.06
2023-01-29T02:23:02.687Z,52.23
2023-01-29T02:26:34.473Z,52.28
2023-01-29T02:29:55.693Z,52.31
2023-01-29T02:33:11.231Z,52.37
2023-01-29T02:36:24.809Z,52.39
2023-01-29T02:39:27.434Z,52.34
2023-01-29T02:42:44.561Z,52.37
2023-01-29T02:45:55.876Z,52.42
2023-01-29T02:49:23.719Z,52.40
2023-01-29T02:52:35.919Z,52.43
2023-01-29T02:55:56.327Z,52.49
2023-01-29T02:59:08.369Z,52.54
2023-01-29T03:02:26.565Z,52.62
2023-01-29T03:05:58.918Z,52.63
2023-01-29T03:09:36.143Z,52.71
2023-01-29T03:12:40.514Z,52.73
2023-01-29T03:15:48.593Z,52.77
2023-01-29T03:19:16.457Z,52.81
2023-01-29T03:22:22.199Z,52.82
2023-01-29T03:25:46.813Z,52.75
2023-01-29T03:29:11.391Z,52.80
2023-01-29T03:32:16.290Z,52.87
2023-01-29T03:35:36.871Z,52.84
2023-01-29T03:38:41.646Z,52.80
2023-01-29T03:42:13.905Z,52.83
2023-01-29T03:45:42.919Z,52.87
2023-01-29T03:48:50.602Z,52.90
2023-01-29T03:52:21.481Z,52.90
2023-01-29T03:55:40.551Z,52.87
2023-01-29T03:58:48.937Z,52.84
2023-01-29T04:01:58.181Z,52.88
2023-01-29T04:05:10.522Z,52.85
2023-01-29T04:08:29.352Z,52.90
2023-01-29T04:11:37.903Z,52.96
2023-01-29T04:14:40.081Z,52.91
2023-01-29T04:17:51.266Z,52.83
2023-01-29T04:21:01.134Z,52.76
2023-01-29T04:24:08.205Z,52.76
2023-01-29T04:27:35.169Z,52.63
2023-01-29T04:30:53.221Z,52.49
2023-01-29T04:33:57.899Z,52.52
2023-01-29T04:37:19.283Z,52.52
2023-01-29T04:40:26.811Z,52.47
2023-01-29T04:43:48.433Z,52.52
2023-01-29T04:46:50.839Z,52.48
2023-01-29T04:50:03.441Z,52.45
2023-01-29T04:53:34.585Z,52.43
2023-01-29T04:56:57.684Z,52.37
2023-01-29T05:00:08.678Z,52.26
2023-01-29T05:03:14.855Z,52.35
2023-01-29T05:06:19.313Z,52.36
2023-01-29T05:09:23.190Z,52.37
2023-01-29T05:12:28.927Z,52.29
2023-01-29T05:16:02.703Z,52.30
2023-01-29T05:19:05.091Z,52.21
2023-01-29T05:22:11.878Z,52.25
2023-01-29T05:25:27.724Z,52.23
2023-01-29T05:28:30.529Z,52.16
2023-01-29T05:31:32.648Z,52.18
2023-01-29T05:34:35.741Z,52.19
2023-01-29T05:37:37.776Z,52.28
2023-01-29T05:40:40.520Z,52.30
2023-01-29T05:43:42.702Z,52.33
2023-01-29T05:46:45.241Z,52.30
2023-01-29T05:49:47.237Z,52.37
2023-01-29T05:52:56.730Z,52.33
2023-01-29T05:56:02.382Z,52.47
2023-01-29T05:59:06.281Z,52.49
2023-01-29T06:02:08.541Z,52.48
2023-01-29T06:05:12.162Z,52.38
2023-01-29T06:08:14.114Z,52.38
2023-01-29T06:11:19.823Z,52.32
2023-01-29T06:14:21.960Z,52.28
2023-01-29T06:17:24.353Z,52.46
2023-01-29T06:20:28.032Z,52.48
2023-01-29T06:23:31.327Z,52.59
2023-01-29T06:26:33.367Z,52.65
2023-01-29T06:29:36.879Z,52.62
2023-01-29T06:32:39.842Z,52.54
2023-01-29T06:35:42.670Z,52.60
2023-01-29T06:38:44.620Z,52.58
2023-01-29T06:41:47.099Z,52.41
2023-01-29T06:44:50.427Z,52.41
2023-01-29T06:47:54.418Z,52.36
2023-01-29T06:50:56.785Z,52.41
2023-01-29T06:53:59.937Z,52.41
2023-01-29T06:57:02.169Z,52.39
2023-01-29T07:00:06.997Z,52.25
2023-01-29T07:03:09.509Z,52.28
2023-01-29T07:06:13.494Z,52.29
2023-01-29T07:09:15.748Z,52.31
2023-01-29T07:12:18.915Z,52.16
2023-01-29T07:15:21.801Z,52.10
2023-01-29T07:18:24.782Z,52.13
2023-01-29T07:21:27.511Z,52.12
2023-01-29T07:24:30.184Z,52.15
2023-01-29T07:27:32.246Z,52.08
2023-01-29T07:30:35.717Z,52.19
2023-01-29T07:33:38.232Z,52.16
2023-01-29T07:36:42.061Z,52.09
2023-01-29T07:39:45.080Z,52.03
2023-01-29T07:42:47.850Z,52.12
2023-01-29T07:45:49.710Z,52.04
2023-01-29T07:48:53.246Z,52.06
2023-01-29T07:51:57.530Z,52.09
2023-01-29T07:55:00.527Z,52.07
2023-01-29T07:58:04.139Z,52.14
2023-01-29T08:01:08.052Z,52.23
2023-01-29T08:04:10.089Z,53.20
2023-01-29T08:07:12.932Z,53.58
2023-01-29T08:10:15.142Z,53.57
2023-01-29T08:13:17.877Z,53.54
2023-01-29T08:16:22.192Z,53.32
2023-01-29T08:19:27.575Z,53.46
2023-01-29T08:22:29.576Z,53.36
2023-01-29T08:25:32.545Z,53.28
2023-01-29T08:28:35.779Z,53.30
2023-01-29T08:31:38.605Z,53.28
2023-01-29T08:34:40.696Z,53.21
2023-01-29T08:37:42.981Z,53.22
2023-01-29T08:40:45.760Z,53.12
2023-01-29T08:43:48.715Z,52.93
2023-01-29T08:46:50.742Z,52.94
2023-01-29T08:49:53.989Z,52.81
2023-01-29T08:53:00.838Z,52.85
2023-01-29T08:56:03.818Z,52.60
2023-01-29T08:59:06.895Z,52.54
2023-01-29T09:02:12.217Z,52.38
2023-01-29T09:05:14.532Z,52.31
2023-01-29T09:08:17.497Z,52.19
2023-01-29T09:11:19.891Z,52.03
2023-01-29T09:14:22.222Z,51.92
2023-01-29T09:17:25.112Z,51.97
2023-01-29T09:20:29.368Z,52.00
2023-01-29T09:23:32.099Z,51.78
2023-01-29T09:26:35.137Z,51.74
2023-01-29T09:29:37.975Z,51.71
2023-01-29T09:32:53.153Z,51.66
2023-01-29T09:35:56.295Z,51.45
2023-01-29T09:38:59.209Z,51.41
2023-01-29T09:42:16.723Z,51.13
2023-01-29T09:45:26.192Z,51.05
2023-01-29T09:48:32.518Z,51.03
2023-01-29T09:51:41.398Z,50.99
2023-01-29T09:54:55.010Z,50.89
2023-01-29T09:58:28.206Z,51.02
2023-01-29T10:01:48.510Z,51.28
2023-01-29T10:05:38.402Z,51.61
2023-01-29T10:09:14.137Z,51.34
2023-01-29T10:12:23.098Z,51.53
2023-01-29T10:15:34.901Z,51.52
2023-01-29T10:18:59.731Z,51.77
2023-01-29T10:22:21.682Z,51.72
2023-01-29T10:25:27.985Z,51.56
2023-01-29T10:28:43.906Z,51.54
2023-01-29T10:31:51.554Z,51.47
2023-01-29T10:35:03.957Z,51.46
2023-01-29T10:38:28.932Z,51.38
2023-01-29T10:41:46.562Z,51.35
2023-01-29T10:45:21.270Z,51.25
2023-01-29T10:48:59.533Z,51.14
2023-01-29T10:52:20.350Z,51.18
2023-01-29T10:55:39.406Z,51.25
2023-01-29T10:59:21.638Z,51.24
2023-01-29T11:02:24.273Z,51.14
2023-01-29T11:05:35.372Z,51.12
2023-01-29T11:08:49.053Z,51.01
2023-01-29T11:11:54.809Z,50.95
2023-01-29T11:15:05.894Z,50.92
2023-01-29T11:18:16.300Z,50.85
2023-01-29T11:21:18.855Z,50.93
2023-01-29T11:24:21.233Z,50.77
2023-01-29T11:27:29.675Z,50.72
2023-01-29T11:30:36.245Z,50.65
2023-01-29T11:33:38.632Z,50.74
2023-01-29T11:36:41.601Z,50.68
2023-01-29T11:39:47.242Z,50.55
2023-01-29T11:42:50.625Z,50.52
2023-01-29T11:45:59.179Z,50.51
2023-01-29T11:49:14.390Z,50.36
2023-01-29T11:52:25.105Z,50.24
2023-01-29T11:55:44.489Z,50.24
2023-01-29T11:58:57.046Z,50.29
2023-01-29T12:02:32.129Z,50.36
2023-01-29T12:05:34.737Z,50.27
2023-01-29T12:08:39.432Z,50.27
2023-01-29T12:11:41.909Z,50.32
2023-01-29T12:14:44.863Z,50.25
2023-01-29T12:18:22.564Z,50.25
2023-01-29T12:21:40.249Z,50.25
2023-01-29T12:24:55.026Z,50.05
2023-01-29T12:28:04.224Z,49.99
2023-01-29T12:31:30.285Z,49.83
2023-01-29T12:34:42.323Z,49.87
2023-01-29T12:38:15.655Z,50.10
2023-01-29T12:41:39.995Z,50.19
2023-01-29T12:44:52.916Z,50.21
2023-01-29T12:48:08.612Z,50.37
2023-01-29T12:51:25.936Z,50.37
2023-01-29T12:54:37.639Z,49.41
2023-01-29T12:57:51.886Z,49.92
2023-01-29T13:01:01.111Z,49.65
2023-01-29T13:04:09.965Z,49.41
2023-01-29T13:07:31.878Z,49.21
2023-01-29T13:10:42.733Z,49.23
2023-01-29T13:13:54.346Z,49.17
2023-01-29T13:17:10.682Z,49.17
2023-01-29T13:20:16.321Z,49.14
2023-01-29T13:23:26.819Z,49.18
2023-01-29T13:26:30.973Z,49.10
2023-01-29T13:29:33.847Z,48.91
2023-01-29T13:32:36.862Z,48.85
2023-01-29T13:35:45.403Z,48.84
2023-01-29T13:39:06.030Z,48.82
2023-01-29T13:42:21.775Z,48.73
2023-01-29T13:45:26.294Z,48.75
2023-01-29T13:48:37.307Z,48.72
2023-01-29T13:51:39.913Z,48.79
2023-01-29T13:54:55.679Z,48.73
2023-01-29T13:58:00.273Z,48.70
2023-01-29T14:01:02.681Z,48.66
2023-01-29T14:04:28.902Z,48.70
2023-01-29T14:07:50.764Z,48.84
2023-01-29T14:11:19.430Z,48.96
2023-01-29T14:14:49.512Z,49.00
2023-01-29T14:18:00.211Z,48.89
2023-01-29T14:21:07.959Z,48.98
2023-01-29T14:24:31.400Z,49.39
2023-01-29T14:27:35.679Z,49.65
2023-01-29T14:30:41.437Z,49.65
2023-01-29T14:33:44.754Z,49.76
2023-01-29T14:36:50.948Z,49.76
2023-01-29T14:39:58.036Z,49.78
2023-01-29T14:43:27.729Z,49.75
2023-01-29T14:46:42.802Z,49.93
2023-01-29T14:49:55.239Z,49.88
2023-01-29T14:53:25.987Z,49.91
2023-01-29T14:56:40.635Z,49.79
2023-01-29T14:59:59.255Z,49.91
2023-01-29T15:03:03.160Z,49.88
2023-01-29T15:06:08.188Z,49.86
2023-01-29T15:09:16.353Z,49.97
2023-01-29T15:12:46.733Z,50.00
2023-01-29T15:15:57.118Z,49.96
2023-01-29T15:19:14.302Z,49.87
2023-01-29T15:22:26.711Z,49.95
2023-01-29T15:25:35.715Z,49.98
2023-01-29T15:28:40.393Z,50.01
2023-01-29T15:31:43.059Z,50.09
2023-01-29T15:34:45.969Z,49.98
2023-01-29T15:38:00.328Z,49.90
2023-01-29T15:41:04.044Z,49.93
2023-01-29T15:44:22.466Z,49.91
2023-01-29T15:47:32.908Z,49.95
2023-01-29T15:50:39.531Z,49.89
2023-01-29T15:53:48.958Z,49.86
2023-01-29T15:56:53.150Z,49.91
2023-01-29T15:59:58.947Z,49.86
2023-01-29T16:03:01.816Z,49.87
2023-01-29T16:06:07.750Z,49.79
2023-01-29T16:09:18.586Z,49.70
2023-01-29T16:12:21.663Z,49.63
2023-01-29T16:15:31.687Z,49.86
2023-01-29T16:18:42.874Z,49.68
2023-01-29T16:22:02.351Z,49.55
2023-01-29T16:25:07.907Z,49.39
2023-01-29T16:28:11.377Z,49.41
2023-01-29T16:31:22.755Z,49.35
2023-01-29T16:34:43.029Z,49.29
2023-01-29T16:37:50.625Z,49.41
2023-01-29T16:41:27.055Z,49.23
2023-01-29T16:44:36.676Z,49.45
2023-01-29T16:47:41.859Z,49.50
2023-01-29T16:50:54.691Z,49.67
2023-01-29T16:54:18.336Z,49.79
2023-01-29T16:57:26.789Z,49.65
2023-01-29T17:00:31.510Z,49.67
2023-01-29T17:03:36.287Z,49.78
2023-01-29T17:06:48.598Z,49.78
2023-01-29T17:09:55.828Z,49.82
2023-01-29T17:13:04.033Z,50.07
2023-01-29T17:16:29.799Z,50.05
2023-01-29T17:19:32.385Z,50.21
2023-01-29T17:22:35.415Z,50.28
2023-01-29T17:25:38.192Z,50.61
2023-01-29T17:28:42.227Z,50.68
2023-01-29T17:31:44.528Z,50.51
2023-01-29T17:34:47.303Z,50.87
2023-01-29T17:37:49.932Z,50.59
2023-01-29T17:41:08.005Z,50.40
2023-01-29T17:44:10.202Z,50.51
2023-01-29T17:47:15.278Z,50.48
2023-01-29T17:50:23.222Z,50.45
2023-01-29T17:53:30.546Z,50.56
2023-01-29T17:56:38.546Z,50.52
2023-01-29T17:59:41.124Z,50.52
2023-01-29T18:02:43.249Z,50.52
2023-01-29T18:05:48.123Z,50.59
2023-01-29T18:08:50.098Z,50.71
2023-01-29T18:11:54.183Z,50.77
2023-01-29T18:14:56.537Z,50.78
2023-01-29T18:18:00.194Z,50.81
2023-01-29T18:21:02.420Z,50.91
2023-01-29T18:24:05.152Z,50.97
2023-01-29T18:27:09.560Z,50.87
2023-01-29T18:30:13.335Z,51.03
2023-01-29T18:33:17.449Z,51.18
2023-01-29T18:36:19.837Z,51.26
2023-01-29T18:39:22.304Z,51.34
2023-01-29T18:42:25.168Z,51.41
2023-01-29T18:45:29.781Z,51.39
2023-01-29T18:48:33.026Z,51.45
2023-01-29T18:51:35.369Z,51.57
2023-01-29T18:54:37.815Z,51.50
2023-01-29T18:58:29.402Z,51.47
2023-01-29T19:01:09.683Z,51.39
2023-01-29T19:04:12.171Z,51.40
2023-01-29T19:07:15.552Z,51.47
2023-01-29T19:10:18.354Z,51.48
2023-01-29T19:13:20.885Z,51.42
2023-01-29T19:16:23.093Z,51.31
2023-01-29T19:19:26.072Z,51.40
2023-01-29T19:22:29.590Z,51.48
2023-01-29T19:25:32.799Z,51.42
2023-01-29T19:28:35.617Z,51.40
2023-01-29T19:31:38.443Z,51.41
2023-01-29T19:34:41.340Z,51.42
2023-01-29T19:37:44.140Z,51.51
2023-01-29T19:40:47.024Z,51.44
2023-01-29T19:43:50.017Z,51.44
2023-01-29T19:46:52.262Z,51.52
2023-01-29T19:49:54.853Z,51.60
2023-01-29T19:52:57.078Z,51.63
2023-01-29T19:56:07.363Z,51.73
2023-01-29T19:59:11.707Z,51.71
2023-01-29T20:02:14.701Z,51.65
2023-01-29T20:05:18.835Z,52.34
2023-01-29T20:08:22.771Z,52.09
2023-01-29T20:11:25.539Z,52.12
2023-01-29T20:14:29.052Z,52.63
2023-01-29T20:17:31.136Z,52.74
2023-01-29T20:20:33.544Z,52.76
2023-01-29T20:23:38.482Z,52.73
2023-01-29T20:26:41.842Z,52.81
2023-01-29T20:29:45.833Z,52.77
2023-01-29T20:32:48.752Z,52.74
2023-01-29T20:36:00.134Z,52.67
2023-01-29T20:39:02.722Z,52.53
2023-01-29T20:42:05.221Z,52.25
2023-01-29T20:45:08.097Z,52.22
2023-01-29T20:48:10.545Z,52.19
2023-01-29T20:51:16.544Z,52.17
2023-01-29T20:54:19.013Z,52.13
2023-01-29T20:57:21.957Z,51.88
2023-01-29T21:00:24.146Z,51.79
2023-01-29T21:03:26.820Z,51.63
2023-01-29T21:06:29.840Z,51.72
2023-01-29T21:09:32.156Z,51.57
2023-01-29T21:12:35.273Z,51.41
2023-01-29T21:15:38.243Z,51.25
2023-01-29T21:18:40.723Z,51.02
2023-01-29T21:21:43.505Z,50.83
2023-01-29T21:24:45.592Z,50.56
2023-01-29T21:27:48.009Z,50.52
2023-01-29T21:30:51.727Z,50.52
2023-01-29T21:33:54.127Z,50.60
2023-01-29T21:36:57.720Z,50.71
2023-01-29T21:40:00.331Z,50.79
2023-01-29T21:43:13.281Z,50.84
2023-01-29T21:46:16.215Z,50.85
2023-01-29T21:49:18.297Z,50.93
2023-01-29T21:52:20.729Z,51.23
2023-01-29T21:55:23.394Z,51.19
2023-01-29T21:58:25.925Z,51.09
2023-01-29T22:01:37.498Z,50.89
2023-01-29T22:04:42.484Z,50.83
2023-01-29T22:07:45.068Z,50.69
2023-01-29T22:10:47.632Z,50.59
2023-01-29T22:13:51.036Z,50.48
2023-01-29T22:16:53.315Z,50.59
2023-01-29T22:19:55.611Z,50.43
2023-01-29T22:23:00.697Z,50.57
2023-01-29T22:26:07.323Z,50.49
2023-01-29T22:29:12.784Z,50.47
2023-01-29T22:32:15.431Z,50.49
2023-01-29T22:35:18.551Z,50.38
2023-01-29T22:38:22.849Z,50.08
2023-01-29T22:41:27.478Z,49.91
2023-01-29T22:44:30.463Z,49.81
2023-01-29T22:47:33.900Z,49.53
2023-01-29T22:50:35.932Z,49.51
2023-01-29T22:53:41.762Z,49.57
2023-01-29T22:56:44.082Z,49.51
2023-01-29T22:59:47.190Z,49.73
2023-01-29T23:02:50.447Z,49.99
2023-01-29T23:05:56.029Z,50.99
2023-01-29T23:08:58.165Z,50.96
2023-01-29T23:12:01.514Z,50.70
2023-01-29T23:15:03.941Z,50.99
2023-01-29T23:18:06.758Z,50.88
2023-01-29T23:21:10.051Z,50.65
2023-01-29T23:24:13.684Z,50.85
2023-01-29T23:27:16.867Z,50.75
2023-01-29T23:30:19.895Z,50.60
2023-01-29T23:33:22.481Z,50.31
2023-01-29T23:36:24.815Z,50.50
2023-01-29T23:39:26.876Z,50.08
2023-01-29T23:42:29.357Z,50.05
2023-01-29T23:45:31.330Z,49.88
2023-01-29T23:48:34.867Z,49.72
2023-01-29T23:51:36.990Z,49.72
2023-01-29T23:54:39.572Z,49.72
2023-01-29T23:57:42.305Z,49.89
